sensor_id;sensor_type;location;lat;lon;timestamp;pressure;altitude;pressure_sealevel;temperature;humidity
51452;BME280;37521;52.020;-1.740;2023-05-09T00:02:05;99669.34;;;9.95;100.00
51452;BME280;37521;52.020;-1.740;2023-05-09T00:04:35;99667.66;;;9.94;100.00
51452;BME280;37521;52.020;-1.740;2023-05-09T00:07:03;99669.50;;;9.92;100.00
51452;BME280;37521;52.020;-1.740;2023-05-09T00:09:31;99664.25;;;9.92;100.00
51452;BME280;37521;52.020;-1.740;2023-05-09T00:11:59;99670.44;;;9.91;100.00
51452;BME280;37521;52.020;-1.740;2023-05-09T00:14:28;99676.72;;;9.88;100.00
51452;BME280;37521;52.020;-1.740;2023-05-09T00:16:56;99667.09;;;9.87;100.00
51452;BME280;37521;52.020;-1.740;2023-05-09T00:19:25;99672.44;;;9.86;100.00
51452;BME280;37521;52.020;-1.740;2023-05-09T00:21:54;99671.50;;;9.87;100.00
51452;BME280;37521;52.020;-1.740;2023-05-09T00:24:22;99657.56;;;9.85;100.00
51452;BME280;37521;52.020;-1.740;2023-05-09T00:26:51;99645.44;;;9.80;100.00
51452;BME280;37521;52.020;-1.740;2023-05-09T00:29:19;99649.19;;;9.76;100.00
51452;BME280;37521;52.020;-1.740;2023-05-09T00:31:47;99641.47;;;9.72;100.00
51452;BME280;37521;52.020;-1.740;2023-05-09T00:34:15;99644.19;;;9.70;100.00
51452;BME280;37521;52.020;-1.740;2023-05-09T00:36:43;99646.88;;;9.69;100.00
51452;BME280;37521;52.020;-1.740;2023-05-09T00:39:13;99646.03;;;9.68;100.00
51452;BME280;37521;52.020;-1.740;2023-05-09T00:41:41;99638.97;;;9.69;100.00
51452;BME280;37521;52.020;-1.740;2023-05-09T00:44:10;99644.13;;;9.72;100.00
51452;BME280;37521;52.020;-1.740;2023-05-09T00:46:38;99641.31;;;9.75;100.00
51452;BME280;37521;52.020;-1.740;2023-05-09T00:49:06;99626.34;;;9.75;100.00
51452;BME280;37521;52.020;-1.740;2023-05-09T00:51:35;99620.88;;;9.80;100.00
51452;BME280;37521;52.020;-1.740;2023-05-09T00:54:03;99611.94;;;9.82;100.00
51452;BME280;37521;52.020;-1.740;2023-05-09T00:56:36;99607.38;;;9.86;100.00
51452;BME280;37521;52.020;-1.740;2023-05-09T00:59:04;99613.50;;;9.87;100.00
51452;BME280;37521;52.020;-1.740;2023-05-09T01:01:33;99614.44;;;9.86;100.00
51452;BME280;37521;52.020;-1.740;2023-05-09T01:04:02;99615.38;;;9.85;100.00
51452;BME280;37521;52.020;-1.740;2023-05-09T01:06:36;99611.03;;;9.83;100.00
51452;BME280;37521;52.020;-1.740;2023-05-09T01:09:12;99609.28;;;9.82;100.00
51452;BME280;37521;52.020;-1.740;2023-05-09T01:11:47;99608.41;;;9.83;100.00
51452;BME280;37521;52.020;-1.740;2023-05-09T01:14:27;99613.66;;;9.83;100.00
51452;BME280;37521;52.020;-1.740;2023-05-09T01:17:02;99606.66;;;9.82;100.00
51452;BME280;37521;52.020;-1.740;2023-05-09T01:19:47;99610.09;;;9.85;100.00
51452;BME280;37521;52.020;-1.740;2023-05-09T01:22:19;99607.53;;;9.83;100.00
51452;BME280;37521;52.020;-1.740;2023-05-09T01:25:09;99603.13;;;9.83;100.00
51452;BME280;37521;52.020;-1.740;2023-05-09T01:27:48;99591.72;;;9.83;100.00
51452;BME280;37521;52.020;-1.740;2023-05-09T01:30:19;99583.88;;;9.81;100.00
51452;BME280;37521;52.020;-1.740;2023-05-09T01:32:50;99585.56;;;9.82;100.00
51452;BME280;37521;52.020;-1.740;2023-05-09T01:35:20;99573.50;;;9.78;100.00
51452;BME280;37521;52.020;-1.740;2023-05-09T01:37:51;99585.03;;;9.76;100.00
51452;BME280;37521;52.020;-1.740;2023-05-09T01:40:22;99590.28;;;9.76;100.00
51452;BME280;37521;52.020;-1.740;2023-05-09T01:42:56;99573.63;;;9.75;100.00
51452;BME280;37521;52.020;-1.740;2023-05-09T01:45:29;99581.63;;;9.74;100.00
51452;BME280;37521;52.020;-1.740;2023-05-09T01:47:58;99582.63;;;9.71;100.00
51452;BME280;37521;52.020;-1.740;2023-05-09T01:50:28;99577.50;;;9.68;100.00
51452;BME280;37521;52.020;-1.740;2023-05-09T01:52:58;99577.66;;;9.65;100.00
51452;BME280;37521;52.020;-1.740;2023-05-09T01:55:31;99573.38;;;9.63;100.00
51452;BME280;37521;52.020;-1.740;2023-05-09T01:58:02;99578.97;;;9.57;100.00
51452;BME280;37521;52.020;-1.740;2023-05-09T02:00:33;99575.78;;;9.50;100.00
51452;BME280;37521;52.020;-1.740;2023-05-09T02:03:03;99576.97;;;9.43;100.00
51452;BME280;37521;52.020;-1.740;2023-05-09T02:05:31;99579.00;;;9.38;100.00
51452;BME280;37521;52.020;-1.740;2023-05-09T02:08:00;99580.84;;;9.36;100.00
51452;BME280;37521;52.020;-1.740;2023-05-09T02:10:32;99586.13;;;9.36;100.00
51452;BME280;37521;52.020;-1.740;2023-05-09T02:13:03;99580.84;;;9.36;100.00
51452;BME280;37521;52.020;-1.740;2023-05-09T02:15:34;99568.56;;;9.36;100.00
51452;BME280;37521;52.020;-1.740;2023-05-09T02:18:02;99566.69;;;9.38;100.00
51452;BME280;37521;52.020;-1.740;2023-05-09T02:20:30;99566.91;;;9.34;100.00
51452;BME280;37521;52.020;-1.740;2023-05-09T02:23:01;99567.19;;;9.27;100.00
51452;BME280;37521;52.020;-1.740;2023-05-09T02:25:30;99558.03;;;9.17;100.00
51452;BME280;37521;52.020;-1.740;2023-05-09T02:27:59;99551.19;;;9.13;100.00
51452;BME280;37521;52.020;-1.740;2023-05-09T02:30:34;99544.44;;;9.08;100.00
51452;BME280;37521;52.020;-1.740;2023-05-09T02:33:06;99551.69;;;9.02;100.00
51452;BME280;37521;52.020;-1.740;2023-05-09T02:35:35;99548.50;;;8.96;100.00
51452;BME280;37521;52.020;-1.740;2023-05-09T02:38:04;99564.59;;;8.90;100.00
51452;BME280;37521;52.020;-1.740;2023-05-09T02:40:34;99562.25;;;8.84;100.00
51452;BME280;37521;52.020;-1.740;2023-05-09T02:43:03;99550.16;;;8.80;100.00
51452;BME280;37521;52.020;-1.740;2023-05-09T02:45:31;99565.94;;;8.80;100.00
51452;BME280;37521;52.020;-1.740;2023-05-09T02:48:03;99555.63;;;8.75;100.00
51452;BME280;37521;52.020;-1.740;2023-05-09T02:50:34;99551.28;;;8.74;100.00
51452;BME280;37521;52.020;-1.740;2023-05-09T02:53:04;99547.81;;;8.73;100.00
51452;BME280;37521;52.020;-1.740;2023-05-09T02:55:33;99547.16;;;8.68;100.00
51452;BME280;37521;52.020;-1.740;2023-05-09T02:58:01;99546.56;;;8.62;100.00
51452;BME280;37521;52.020;-1.740;2023-05-09T03:00:41;99555.66;;;8.55;100.00
51452;BME280;37521;52.020;-1.740;2023-05-09T03:03:13;99550.56;;;8.52;100.00
51452;BME280;37521;52.020;-1.740;2023-05-09T03:05:44;99547.28;;;8.46;100.00
51452;BME280;37521;52.020;-1.740;2023-05-09T03:08:12;99548.28;;;8.44;100.00
51452;BME280;37521;52.020;-1.740;2023-05-09T03:10:40;99545.78;;;8.41;100.00
51452;BME280;37521;52.020;-1.740;2023-05-09T03:13:08;99534.59;;;8.36;100.00
51452;BME280;37521;52.020;-1.740;2023-05-09T03:15:37;99534.59;;;8.36;100.00
51452;BME280;37521;52.020;-1.740;2023-05-09T03:18:06;99535.50;;;8.35;100.00
51452;BME280;37521;52.020;-1.740;2023-05-09T03:20:36;99526.81;;;8.33;100.00
51452;BME280;37521;52.020;-1.740;2023-05-09T03:23:04;99533.94;;;8.31;100.00
51452;BME280;37521;52.020;-1.740;2023-05-09T03:25:33;99530.56;;;8.27;100.00
51452;BME280;37521;52.020;-1.740;2023-05-09T03:28:01;99530.00;;;8.20;100.00
51452;BME280;37521;52.020;-1.740;2023-05-09T03:30:29;99533.53;;;8.19;100.00
51452;BME280;37521;52.020;-1.740;2023-05-09T03:32:57;99525.66;;;8.19;100.00
51452;BME280;37521;52.020;-1.740;2023-05-09T03:35:25;99536.84;;;8.25;100.00
51452;BME280;37521;52.020;-1.740;2023-05-09T03:37:55;99536.09;;;8.21;100.00
51452;BME280;37521;52.020;-1.740;2023-05-09T03:40:24;99528.56;;;8.13;100.00
51452;BME280;37521;52.020;-1.740;2023-05-09T03:43:03;99529.09;;;8.01;100.00
51452;BME280;37521;52.020;-1.740;2023-05-09T03:45:31;99519.69;;;7.96;100.00
51452;BME280;37521;52.020;-1.740;2023-05-09T03:48:03;99524.50;;;7.86;100.00
51452;BME280;37521;52.020;-1.740;2023-05-09T03:50:37;99517.81;;;7.79;100.00
51452;BME280;37521;52.020;-1.740;2023-05-09T03:53:08;99516.94;;;7.78;100.00
51452;BME280;37521;52.020;-1.740;2023-05-09T03:55:37;99516.22;;;7.75;100.00
51452;BME280;37521;52.020;-1.740;2023-05-09T03:58:06;99511.22;;;7.69;100.00
51452;BME280;37521;52.020;-1.740;2023-05-09T04:00:37;99523.72;;;7.63;100.00
51452;BME280;37521;52.020;-1.740;2023-05-09T04:03:10;99514.13;;;7.62;100.00
51452;BME280;37521;52.020;-1.740;2023-05-09T04:05:43;99507.81;;;7.67;100.00
51452;BME280;37521;52.020;-1.740;2023-05-09T04:08:21;99513.19;;;7.63;100.00
51452;BME280;37521;52.020;-1.740;2023-05-09T04:10:49;99513.38;;;7.59;100.00
51452;BME280;37521;52.020;-1.740;2023-05-09T04:13:18;99520.41;;;7.58;100.00
51452;BME280;37521;52.020;-1.740;2023-05-09T04:15:46;99515.16;;;7.58;100.00
51452;BME280;37521;52.020;-1.740;2023-05-09T04:18:14;99518.72;;;7.57;100.00
51452;BME280;37521;52.020;-1.740;2023-05-09T04:20:43;99519.69;;;7.55;100.00
51452;BME280;37521;52.020;-1.740;2023-05-09T04:23:13;99511.88;;;7.53;100.00
51452;BME280;37521;52.020;-1.740;2023-05-09T04:25:43;99499.50;;;7.55;100.00
51452;BME280;37521;52.020;-1.740;2023-05-09T04:28:11;99496.03;;;7.55;100.00
51452;BME280;37521;52.020;-1.740;2023-05-09T04:30:39;99500.41;;;7.56;100.00
51452;BME280;37521;52.020;-1.740;2023-05-09T04:33:08;99504.75;;;7.55;100.00
51452;BME280;37521;52.020;-1.740;2023-05-09T04:35:37;99506.53;;;7.55;100.00
51452;BME280;37521;52.020;-1.740;2023-05-09T04:38:06;99508.22;;;7.57;100.00
51452;BME280;37521;52.020;-1.740;2023-05-09T04:40:34;99514.16;;;7.61;100.00
51452;BME280;37521;52.020;-1.740;2023-05-09T04:43:04;99513.13;;;7.65;100.00
51452;BME280;37521;52.020;-1.740;2023-05-09T04:45:33;99509.50;;;7.68;100.00
51452;BME280;37521;52.020;-1.740;2023-05-09T04:48:01;99506.84;;;7.69;100.00
51452;BME280;37521;52.020;-1.740;2023-05-09T04:50:30;99501.63;;;7.68;100.00
51452;BME280;37521;52.020;-1.740;2023-05-09T04:52:58;99509.75;;;7.61;100.00
51452;BME280;37521;52.020;-1.740;2023-05-09T04:55:26;99499.41;;;7.58;100.00
51452;BME280;37521;52.020;-1.740;2023-05-09T04:57:55;99500.31;;;7.57;100.00
51452;BME280;37521;52.020;-1.740;2023-05-09T05:00:25;99497.81;;;7.54;100.00
51452;BME280;37521;52.020;-1.740;2023-05-09T05:02:53;99496.97;;;7.54;100.00
51452;BME280;37521;52.020;-1.740;2023-05-09T05:05:24;99497.03;;;7.52;100.00
51452;BME280;37521;52.020;-1.740;2023-05-09T05:07:53;99491.00;;;7.50;100.00
51452;BME280;37521;52.020;-1.740;2023-05-09T05:10:26;99486.66;;;7.49;100.00
51452;BME280;37521;52.020;-1.740;2023-05-09T05:13:04;99481.09;;;7.57;100.00
51452;BME280;37521;52.020;-1.740;2023-05-09T05:15:35;99486.13;;;7.61;100.00
51452;BME280;37521;52.020;-1.740;2023-05-09T05:18:04;99480.59;;;7.68;100.00
51452;BME280;37521;52.020;-1.740;2023-05-09T05:20:34;99485.53;;;7.75;100.00
51452;BME280;37521;52.020;-1.740;2023-05-09T05:23:02;99494.81;;;7.84;100.00
51452;BME280;37521;52.020;-1.740;2023-05-09T05:25:30;99491.09;;;7.88;100.00
51452;BME280;37521;52.020;-1.740;2023-05-09T05:27:59;99495.84;;;8.00;100.00
51452;BME280;37521;52.020;-1.740;2023-05-09T05:30:28;99497.00;;;8.13;100.00
51452;BME280;37521;52.020;-1.740;2023-05-09T05:33:01;99489.69;;;8.20;100.00
51452;BME280;37521;52.020;-1.740;2023-05-09T05:35:30;99481.34;;;8.31;100.00
51452;BME280;37521;52.020;-1.740;2023-05-09T05:37:58;99486.19;;;8.40;100.00
51452;BME280;37521;52.020;-1.740;2023-05-09T05:40:27;99482.34;;;8.47;100.00
51452;BME280;37521;52.020;-1.740;2023-05-09T05:42:58;99477.88;;;8.49;100.00
51452;BME280;37521;52.020;-1.740;2023-05-09T05:45:27;99479.44;;;8.53;100.00
51452;BME280;37521;52.020;-1.740;2023-05-09T05:47:57;99482.72;;;8.58;100.00
51452;BME280;37521;52.020;-1.740;2023-05-09T05:50:31;99491.25;;;8.63;100.00
51452;BME280;37521;52.020;-1.740;2023-05-09T05:52:59;99479.81;;;8.64;100.00
51452;BME280;37521;52.020;-1.740;2023-05-09T05:55:27;99487.53;;;8.67;100.00
51452;BME280;37521;52.020;-1.740;2023-05-09T05:57:56;99488.97;;;8.74;100.00
51452;BME280;37521;52.020;-1.740;2023-05-09T06:00:24;99487.81;;;8.80;100.00
51452;BME280;37521;52.020;-1.740;2023-05-09T06:02:59;99479.63;;;8.86;100.00
51452;BME280;37521;52.020;-1.740;2023-05-09T06:05:36;99471.56;;;8.89;100.00
51452;BME280;37521;52.020;-1.740;2023-05-09T06:08:05;99464.47;;;8.91;100.00
51452;BME280;37521;52.020;-1.740;2023-05-09T06:10:33;99463.63;;;8.91;100.00
51452;BME280;37521;52.020;-1.740;2023-05-09T06:13:01;99459.13;;;8.93;100.00
51452;BME280;37521;52.020;-1.740;2023-05-09T06:15:30;99459.78;;;8.98;100.00
51452;BME280;37521;52.020;-1.740;2023-05-09T06:17:58;99463.34;;;8.97;100.00
51452;BME280;37521;52.020;-1.740;2023-05-09T06:20:27;99465.03;;;8.98;100.00
51452;BME280;37521;52.020;-1.740;2023-05-09T06:22:57;99451.78;;;8.99;100.00
51452;BME280;37521;52.020;-1.740;2023-05-09T06:25:25;99449.88;;;9.03;100.00
51452;BME280;37521;52.020;-1.740;2023-05-09T06:27:53;99450.66;;;9.05;100.00
51452;BME280;37521;52.020;-1.740;2023-05-09T06:30:21;99469.09;;;9.22;100.00
51452;BME280;37521;52.020;-1.740;2023-05-09T06:32:53;99472.50;;;9.42;100.00
51452;BME280;37521;52.020;-1.740;2023-05-09T06:35:21;99473.69;;;9.53;100.00
51452;BME280;37521;52.020;-1.740;2023-05-09T06:37:49;99468.09;;;9.60;100.00
51452;BME280;37521;52.020;-1.740;2023-05-09T06:40:19;99473.91;;;9.66;100.00
51452;BME280;37521;52.020;-1.740;2023-05-09T06:42:47;99478.72;;;9.75;100.00
51452;BME280;37521;52.020;-1.740;2023-05-09T06:45:15;99471.50;;;9.79;100.00
51452;BME280;37521;52.020;-1.740;2023-05-09T06:47:43;99469.56;;;9.82;100.00
51452;BME280;37521;52.020;-1.740;2023-05-09T06:50:12;99471.97;;;9.87;100.00
51452;BME280;37521;52.020;-1.740;2023-05-09T06:52:40;99470.97;;;9.90;100.00
51452;BME280;37521;52.020;-1.740;2023-05-09T06:55:09;99465.53;;;9.93;100.00
51452;BME280;37521;52.020;-1.740;2023-05-09T06:57:39;99463.31;;;10.01;100.00
51452;BME280;37521;52.020;-1.740;2023-05-09T07:00:08;99463.00;;;10.07;100.00
51452;BME280;37521;52.020;-1.740;2023-05-09T07:02:36;99471.34;;;10.15;100.00
51452;BME280;37521;52.020;-1.740;2023-05-09T07:05:08;99464.06;;;10.20;100.00
51452;BME280;37521;52.020;-1.740;2023-05-09T07:07:37;99471.03;;;10.21;100.00
51452;BME280;37521;52.020;-1.740;2023-05-09T07:10:06;99471.03;;;10.21;100.00
51452;BME280;37521;52.020;-1.740;2023-05-09T07:12:39;99471.50;;;10.29;100.00
51452;BME280;37521;52.020;-1.740;2023-05-09T07:15:08;99480.81;;;10.36;100.00
51452;BME280;37521;52.020;-1.740;2023-05-09T07:17:37;99483.28;;;10.40;100.00
51452;BME280;37521;52.020;-1.740;2023-05-09T07:20:06;99480.63;;;10.40;100.00
51452;BME280;37521;52.020;-1.740;2023-05-09T07:22:35;99474.44;;;10.41;100.00
51452;BME280;37521;52.020;-1.740;2023-05-09T07:25:05;99479.56;;;10.44;100.00
51452;BME280;37521;52.020;-1.740;2023-05-09T07:27:34;99476.63;;;10.48;100.00
51452;BME280;37521;52.020;-1.740;2023-05-09T07:30:04;99472.31;;;10.47;100.00
51452;BME280;37521;52.020;-1.740;2023-05-09T07:32:32;99476.22;;;10.40;100.00
51452;BME280;37521;52.020;-1.740;2023-05-09T07:35:00;99466.75;;;10.36;100.00
51452;BME280;37521;52.020;-1.740;2023-05-09T07:37:30;99476.44;;;10.35;100.00
51452;BME280;37521;52.020;-1.740;2023-05-09T07:39:58;99466.84;;;10.34;100.00
51452;BME280;37521;52.020;-1.740;2023-05-09T07:42:27;99466.69;;;10.38;100.00
51452;BME280;37521;52.020;-1.740;2023-05-09T07:44:56;99461.94;;;10.44;100.00
51452;BME280;37521;52.020;-1.740;2023-05-09T07:47:26;99467.53;;;10.54;100.00
51452;BME280;37521;52.020;-1.740;2023-05-09T07:49:54;99462.69;;;10.62;100.00
51452;BME280;37521;52.020;-1.740;2023-05-09T07:52:22;99457.91;;;10.69;100.00
51452;BME280;37521;52.020;-1.740;2023-05-09T07:54:51;99462.78;;;10.76;100.00
51452;BME280;37521;52.020;-1.740;2023-05-09T07:57:20;99453.75;;;10.80;100.00
51452;BME280;37521;52.020;-1.740;2023-05-09T07:59:49;99452.06;;;10.79;100.00
51452;BME280;37521;52.020;-1.740;2023-05-09T08:02:17;99458.69;;;10.86;100.00
51452;BME280;37521;52.020;-1.740;2023-05-09T08:04:47;99447.28;;;10.86;100.00
51452;BME280;37521;52.020;-1.740;2023-05-09T08:07:15;99446.25;;;10.88;100.00
51452;BME280;37521;52.020;-1.740;2023-05-09T08:09:43;99444.00;;;10.97;100.00
51452;BME280;37521;52.020;-1.740;2023-05-09T08:12:11;99435.69;;;11.04;100.00
51452;BME280;37521;52.020;-1.740;2023-05-09T08:14:39;99435.97;;;11.14;100.00
51452;BME280;37521;52.020;-1.740;2023-05-09T08:17:07;99438.03;;;11.09;100.00
51452;BME280;37521;52.020;-1.740;2023-05-09T08:19:36;99432.25;;;11.02;100.00
51452;BME280;37521;52.020;-1.740;2023-05-09T08:22:06;99430.56;;;11.01;100.00
51452;BME280;37521;52.020;-1.740;2023-05-09T08:24:34;99434.47;;;10.94;100.00
51452;BME280;37521;52.020;-1.740;2023-05-09T08:27:02;99435.00;;;10.85;100.00
51452;BME280;37521;52.020;-1.740;2023-05-09T08:29:30;99436.97;;;10.81;100.00
51452;BME280;37521;52.020;-1.740;2023-05-09T08:31:58;99425.31;;;10.85;100.00
51452;BME280;37521;52.020;-1.740;2023-05-09T08:34:27;99421.78;;;11.01;100.00
51452;BME280;37521;52.020;-1.740;2023-05-09T08:36:57;99427.97;;;11.15;100.00
51452;BME280;37521;52.020;-1.740;2023-05-09T08:39:26;99425.59;;;11.11;100.00
51452;BME280;37521;52.020;-1.740;2023-05-09T08:41:57;99425.41;;;11.14;100.00
51452;BME280;37521;52.020;-1.740;2023-05-09T08:44:27;99414.69;;;11.17;100.00
51452;BME280;37521;52.020;-1.740;2023-05-09T08:46:58;99417.53;;;11.28;100.00
51452;BME280;37521;52.020;-1.740;2023-05-09T08:49:27;99411.53;;;11.40;100.00
51452;BME280;37521;52.020;-1.740;2023-05-09T08:51:56;99403.97;;;11.49;100.00
51452;BME280;37521;52.020;-1.740;2023-05-09T08:54:26;99406.94;;;11.58;100.00
51452;BME280;37521;52.020;-1.740;2023-05-09T08:56:55;99408.53;;;11.61;100.00
51452;BME280;37521;52.020;-1.740;2023-05-09T08:59:25;99404.94;;;11.62;100.00
51452;BME280;37521;52.020;-1.740;2023-05-09T09:01:53;99404.31;;;11.58;100.00
51452;BME280;37521;52.020;-1.740;2023-05-09T09:04:22;99411.94;;;11.63;100.00
51452;BME280;37521;52.020;-1.740;2023-05-09T09:06:50;99411.31;;;11.73;100.00
51452;BME280;37521;52.020;-1.740;2023-05-09T09:09:21;99398.50;;;11.96;100.00
51452;BME280;37521;52.020;-1.740;2023-05-09T09:11:51;99400.22;;;12.11;100.00
51452;BME280;37521;52.020;-1.740;2023-05-09T09:14:22;99417.56;;;12.15;100.00
51452;BME280;37521;52.020;-1.740;2023-05-09T09:16:54;99416.16;;;12.10;100.00
51452;BME280;37521;52.020;-1.740;2023-05-09T09:19:29;99404.25;;;12.03;100.00
51452;BME280;37521;52.020;-1.740;2023-05-09T09:21:58;99409.91;;;11.96;100.00
51452;BME280;37521;52.020;-1.740;2023-05-09T09:24:26;99410.13;;;11.93;100.00
51452;BME280;37521;52.020;-1.740;2023-05-09T09:26:56;99412.03;;;11.91;100.00
51452;BME280;37521;52.020;-1.740;2023-05-09T09:29:24;99410.88;;;12.10;100.00
51452;BME280;37521;52.020;-1.740;2023-05-09T09:31:54;99409.25;;;12.21;100.00
51452;BME280;37521;52.020;-1.740;2023-05-09T09:34:22;99402.72;;;12.27;100.00
51452;BME280;37521;52.020;-1.740;2023-05-09T09:36:50;99416.06;;;12.25;100.00
51452;BME280;37521;52.020;-1.740;2023-05-09T09:39:19;99410.94;;;12.22;100.00
51452;BME280;37521;52.020;-1.740;2023-05-09T09:41:48;99412.38;;;12.28;100.00
51452;BME280;37521;52.020;-1.740;2023-05-09T09:44:19;99410.94;;;12.37;100.00
51452;BME280;37521;52.020;-1.740;2023-05-09T09:46:49;99404.88;;;12.35;100.00
51452;BME280;37521;52.020;-1.740;2023-05-09T09:49:19;99406.69;;;12.34;100.00
51452;BME280;37521;52.020;-1.740;2023-05-09T09:51:50;99405.94;;;12.32;100.00
51452;BME280;37521;52.020;-1.740;2023-05-09T09:54:19;99412.09;;;12.33;100.00
51452;BME280;37521;52.020;-1.740;2023-05-09T09:56:49;99407.75;;;12.32;100.00
51452;BME280;37521;52.020;-1.740;2023-05-09T09:59:22;99398.75;;;12.34;100.00
51452;BME280;37521;52.020;-1.740;2023-05-09T10:01:55;99412.72;;;12.36;100.00
51452;BME280;37521;52.020;-1.740;2023-05-09T10:04:28;99405.75;;;12.35;100.00
51452;BME280;37521;52.020;-1.740;2023-05-09T10:06:57;99409.22;;;12.36;100.00
51452;BME280;37521;52.020;-1.740;2023-05-09T10:09:26;99404.88;;;12.35;100.00
51452;BME280;37521;52.020;-1.740;2023-05-09T10:11:55;99404.16;;;12.33;100.00
51452;BME280;37521;52.020;-1.740;2023-05-09T10:14:25;99398.38;;;12.26;100.00
51452;BME280;37521;52.020;-1.740;2023-05-09T10:16:54;99404.63;;;12.25;100.00
51452;BME280;37521;52.020;-1.740;2023-05-09T10:19:24;99402.94;;;12.24;100.00
51452;BME280;37521;52.020;-1.740;2023-05-09T10:21:55;99398.38;;;12.26;100.00
51452;BME280;37521;52.020;-1.740;2023-05-09T10:24:27;99400.28;;;12.38;100.00
51452;BME280;37521;52.020;-1.740;2023-05-09T10:27:01;99395.03;;;12.51;100.00
51452;BME280;37521;52.020;-1.740;2023-05-09T10:29:36;99398.69;;;12.63;100.00
51452;BME280;37521;52.020;-1.740;2023-05-09T10:32:10;99389.22;;;12.73;100.00
51452;BME280;37521;52.020;-1.740;2023-05-09T10:34:46;99375.66;;;12.77;100.00
51452;BME280;37521;52.020;-1.740;2023-05-09T10:37:15;99378.00;;;12.82;100.00
51452;BME280;37521;52.020;-1.740;2023-05-09T10:39:43;99373.34;;;12.86;100.00
51452;BME280;37521;52.020;-1.740;2023-05-09T10:42:14;99372.34;;;13.01;100.00
51452;BME280;37521;52.020;-1.740;2023-05-09T10:44:43;99370.06;;;13.22;100.00
51452;BME280;37521;52.020;-1.740;2023-05-09T10:47:14;99365.09;;;13.30;100.00
51452;BME280;37521;52.020;-1.740;2023-05-09T10:49:43;99366.47;;;13.23;100.00
51452;BME280;37521;52.020;-1.740;2023-05-09T10:52:11;99357.69;;;13.22;100.00
51452;BME280;37521;52.020;-1.740;2023-05-09T10:54:40;99349.47;;;13.13;100.00
51452;BME280;37521;52.020;-1.740;2023-05-09T10:57:10;99349.47;;;13.13;100.00
51452;BME280;37521;52.020;-1.740;2023-05-09T10:59:40;99347.50;;;13.29;100.00
51452;BME280;37521;52.020;-1.740;2023-05-09T11:02:13;99345.50;;;13.71;100.00
51452;BME280;37521;52.020;-1.740;2023-05-09T11:04:42;99333.41;;;13.92;100.00
51452;BME280;37521;52.020;-1.740;2023-05-09T11:07:30;99326.56;;;14.13;100.00
51452;BME280;37521;52.020;-1.740;2023-05-09T11:10:06;99322.53;;;14.08;100.00
51452;BME280;37521;52.020;-1.740;2023-05-09T11:12:51;99321.34;;;14.12;100.00
51452;BME280;37521;52.020;-1.740;2023-05-09T11:15:24;99317.91;;;14.23;100.00
51452;BME280;37521;52.020;-1.740;2023-05-09T11:18:05;99311.66;;;14.60;100.00
51452;BME280;37521;52.020;-1.740;2023-05-09T11:20:35;99313.78;;;15.14;100.00
51452;BME280;37521;52.020;-1.740;2023-05-09T11:23:03;99315.88;;;15.44;100.00
51452;BME280;37521;52.020;-1.740;2023-05-09T11:25:32;99314.06;;;15.34;100.00
51452;BME280;37521;52.020;-1.740;2023-05-09T11:28:01;99313.13;;;15.46;100.00
51452;BME280;37521;52.020;-1.740;2023-05-09T11:30:38;99310.09;;;15.39;100.00
51452;BME280;37521;52.020;-1.740;2023-05-09T11:33:22;99306.69;;;14.91;100.00
51452;BME280;37521;52.020;-1.740;2023-05-09T11:36:15;99304.38;;;14.51;100.00
51452;BME280;37521;52.020;-1.740;2023-05-09T11:38:45;99303.97;;;14.32;100.00
51452;BME280;37521;52.020;-1.740;2023-05-09T11:41:14;99310.34;;;14.29;100.00
51452;BME280;37521;52.020;-1.740;2023-05-09T11:43:42;99295.06;;;14.33;100.00
51452;BME280;37521;52.020;-1.740;2023-05-09T11:46:11;99294.59;;;14.52;100.00
51452;BME280;37521;52.020;-1.740;2023-05-09T11:48:40;99288.72;;;14.70;100.00
51452;BME280;37521;52.020;-1.740;2023-05-09T11:51:15;99291.66;;;15.14;100.00
51452;BME280;37521;52.020;-1.740;2023-05-09T11:53:45;99282.66;;;15.39;100.00
51452;BME280;37521;52.020;-1.740;2023-05-09T11:56:16;99281.44;;;15.54;100.00
51452;BME280;37521;52.020;-1.740;2023-05-09T11:58:45;99282.75;;;15.26;100.00
51452;BME280;37521;52.020;-1.740;2023-05-09T12:01:13;99288.50;;;15.09;100.00
51452;BME280;37521;52.020;-1.740;2023-05-09T12:03:43;99279.03;;;14.93;100.00
51452;BME280;37521;52.020;-1.740;2023-05-09T12:06:14;99281.16;;;14.77;100.00
51452;BME280;37521;52.020;-1.740;2023-05-09T12:08:43;99273.50;;;14.61;100.00
51452;BME280;37521;52.020;-1.740;2023-05-09T12:11:12;99265.47;;;14.50;100.00
51452;BME280;37521;52.020;-1.740;2023-05-09T12:13:44;99263.19;;;14.33;100.00
51452;BME280;37521;52.020;-1.740;2023-05-09T12:16:14;99259.47;;;14.11;100.00
51452;BME280;37521;52.020;-1.740;2023-05-09T12:18:46;99259.22;;;14.14;100.00
51452;BME280;37521;52.020;-1.740;2023-05-09T12:21:14;99259.97;;;14.40;100.00
51452;BME280;37521;52.020;-1.740;2023-05-09T12:23:43;99256.25;;;14.67;100.00
51452;BME280;37521;52.020;-1.740;2023-05-09T12:26:14;99253.78;;;14.88;100.00
51452;BME280;37521;52.020;-1.740;2023-05-09T12:28:42;99242.88;;;14.91;100.00
51452;BME280;37521;52.020;-1.740;2023-05-09T12:31:10;99236.50;;;14.93;100.00
51452;BME280;37521;52.020;-1.740;2023-05-09T12:33:39;99238.53;;;14.90;100.00
51452;BME280;37521;52.020;-1.740;2023-05-09T12:36:10;99234.06;;;14.79;100.00
51452;BME280;37521;52.020;-1.740;2023-05-09T12:38:39;99233.44;;;14.76;100.00
51452;BME280;37521;52.020;-1.740;2023-05-09T12:41:09;99237.31;;;14.71;100.00
51452;BME280;37521;52.020;-1.740;2023-05-09T12:43:57;99241.91;;;14.81;100.00
51452;BME280;37521;52.020;-1.740;2023-05-09T12:46:26;99244.16;;;14.98;100.00
51452;BME280;37521;52.020;-1.740;2023-05-09T12:48:55;99241.88;;;15.05;100.00
51452;BME280;37521;52.020;-1.740;2023-05-09T12:51:24;99236.16;;;15.09;100.00
51452;BME280;37521;52.020;-1.740;2023-05-09T12:53:52;99234.13;;;15.13;100.00
51452;BME280;37521;52.020;-1.740;2023-05-09T12:56:21;99232.47;;;15.34;100.00
51452;BME280;37521;52.020;-1.740;2023-05-09T12:58:50;99235.25;;;15.55;100.00
51452;BME280;37521;52.020;-1.740;2023-05-09T13:01:21;99235.94;;;15.57;100.00